sensor_id;sensor_type;location;lat;lon;timestamp;P1;durP1;ratioP1;P2;durP2;ratioP2
81229;SDS011;70701;44.452;18.652;2024-02-26T00:00:37;145.83;;;83.70;;
81229;SDS011;70701;44.452;18.652;2024-02-26T00:03:03;150.47;;;87.00;;
81229;SDS011;70701;44.452;18.652;2024-02-26T00:05:29;143.13;;;81.80;;
81229;SDS011;70701;44.452;18.652;2024-02-26T00:07:56;137.70;;;78.03;;
81229;SDS011;70701;44.452;18.652;2024-02-26T00:10:22;123.37;;;72.43;;
81229;SDS011;70701;44.452;18.652;2024-02-26T00:12:53;119.47;;;71.17;;
81229;SDS011;70701;44.452;18.652;2024-02-26T00:15:21;129.83;;;72.37;;
81229;SDS011;70701;44.452;18.652;2024-02-26T00:17:47;121.37;;;69.63;;
81229;SDS011;70701;44.452;18.652;2024-02-26T00:20:12;120.57;;;71.03;;
81229;SDS011;70701;44.452;18.652;2024-02-26T00:22:39;116.43;;;69.50;;
81229;SDS011;70701;44.452;18.652;2024-02-26T00:25:04;119.23;;;68.23;;
81229;SDS011;70701;44.452;18.652;2024-02-26T00:27:30;114.23;;;67.63;;
81229;SDS011;70701;44.452;18.652;2024-02-26T00:29:56;114.53;;;64.27;;
81229;SDS011;70701;44.452;18.652;2024-02-26T00:32:21;121.97;;;66.80;;
81229;SDS011;70701;44.452;18.652;2024-02-26T00:34:47;121.60;;;65.97;;
81229;SDS011;70701;44.452;18.652;2024-02-26T00:37:12;130.17;;;70.37;;
81229;SDS011;70701;44.452;18.652;2024-02-26T00:39:38;128.67;;;70.63;;
81229;SDS011;70701;44.452;18.652;2024-02-26T00:42:04;127.67;;;71.30;;
81229;SDS011;70701;44.452;18.652;2024-02-26T00:44:30;128.47;;;73.27;;
81229;SDS011;70701;44.452;18.652;2024-02-26T00:46:55;126.87;;;70.50;;
81229;SDS011;70701;44.452;18.652;2024-02-26T00:49:21;137.23;;;74.50;;
81229;SDS011;70701;44.452;18.652;2024-02-26T00:51:47;125.13;;;71.40;;
81229;SDS011;70701;44.452;18.652;2024-02-26T00:54:12;140.63;;;77.97;;
81229;SDS011;70701;44.452;18.652;2024-02-26T00:56:38;136.33;;;76.57;;
81229;SDS011;70701;44.452;18.652;2024-02-26T00:59:03;122.30;;;78.03;;
81229;SDS011;70701;44.452;18.652;2024-02-26T01:01:29;133.93;;;78.20;;
81229;SDS011;70701;44.452;18.652;2024-02-26T01:03:55;126.50;;;77.80;;
81229;SDS011;70701;44.452;18.652;2024-02-26T01:06:20;122.13;;;74.93;;
81229;SDS011;70701;44.452;18.652;2024-02-26T01:08:47;125.73;;;75.30;;
81229;SDS011;70701;44.452;18.652;2024-02-26T01:11:13;133.00;;;79.37;;
81229;SDS011;70701;44.452;18.652;2024-02-26T01:13:38;132.10;;;78.23;;
81229;SDS011;70701;44.452;18.652;2024-02-26T01:16:04;132.10;;;78.57;;
81229;SDS011;70701;44.452;18.652;2024-02-26T01:18:30;131.00;;;80.37;;
81229;SDS011;70701;44.452;18.652;2024-02-26T01:20:55;132.87;;;79.73;;
81229;SDS011;70701;44.452;18.652;2024-02-26T01:23:21;142.33;;;80.57;;
81229;SDS011;70701;44.452;18.652;2024-02-26T01:25:46;123.90;;;75.67;;
81229;SDS011;70701;44.452;18.652;2024-02-26T01:28:12;144.93;;;84.67;;
81229;SDS011;70701;44.452;18.652;2024-02-26T01:30:38;135.97;;;79.63;;
81229;SDS011;70701;44.452;18.652;2024-02-26T01:33:04;148.10;;;80.97;;
81229;SDS011;70701;44.452;18.652;2024-02-26T01:35:29;127.60;;;77.70;;
81229;SDS011;70701;44.452;18.652;2024-02-26T01:37:55;162.37;;;83.83;;
81229;SDS011;70701;44.452;18.652;2024-02-26T01:40:21;142.07;;;87.83;;
81229;SDS011;70701;44.452;18.652;2024-02-26T01:42:47;144.57;;;88.23;;
81229;SDS011;70701;44.452;18.652;2024-02-26T01:45:14;146.23;;;88.83;;
81229;SDS011;70701;44.452;18.652;2024-02-26T01:47:48;142.50;;;89.68;;
81229;SDS011;70701;44.452;18.652;2024-02-26T01:50:16;145.23;;;88.63;;
81229;SDS011;70701;44.452;18.652;2024-02-26T01:52:46;140.13;;;83.97;;
81229;SDS011;70701;44.452;18.652;2024-02-26T01:55:14;124.23;;;67.97;;
81229;SDS011;70701;44.452;18.652;2024-02-26T01:57:41;116.30;;;68.23;;
81229;SDS011;70701;44.452;18.652;2024-02-26T02:00:09;110.57;;;63.20;;
81229;SDS011;70701;44.452;18.652;2024-02-26T02:02:35;121.50;;;70.77;;
81229;SDS011;70701;44.452;18.652;2024-02-26T02:05:01;118.00;;;66.17;;
81229;SDS011;70701;44.452;18.652;2024-02-26T02:07:28;115.10;;;67.37;;
81229;SDS011;70701;44.452;18.652;2024-02-26T02:09:54;120.17;;;69.27;;
81229;SDS011;70701;44.452;18.652;2024-02-26T02:12:20;145.40;;;88.67;;
81229;SDS011;70701;44.452;18.652;2024-02-26T02:14:47;186.23;;;102.60;;
81229;SDS011;70701;44.452;18.652;2024-02-26T02:17:12;154.30;;;100.27;;
81229;SDS011;70701;44.452;18.652;2024-02-26T02:19:38;167.77;;;103.37;;
81229;SDS011;70701;44.452;18.652;2024-02-26T02:22:06;153.47;;;96.60;;
81229;SDS011;70701;44.452;18.652;2024-02-26T02:24:31;141.23;;;89.93;;
81229;SDS011;70701;44.452;18.652;2024-02-26T02:26:57;147.80;;;88.40;;
81229;SDS011;70701;44.452;18.652;2024-02-26T02:29:22;148.93;;;79.90;;
81229;SDS011;70701;44.452;18.652;2024-02-26T02:31:48;128.60;;;78.73;;
81229;SDS011;70701;44.452;18.652;2024-02-26T02:34:14;132.63;;;78.33;;
81229;SDS011;70701;44.452;18.652;2024-02-26T02:36:51;135.10;;;79.10;;
81229;SDS011;70701;44.452;18.652;2024-02-26T02:39:18;135.30;;;78.63;;
81229;SDS011;70701;44.452;18.652;2024-02-26T02:41:44;128.40;;;76.63;;
81229;SDS011;70701;44.452;18.652;2024-02-26T02:44:10;113.30;;;63.80;;
81229;SDS011;70701;44.452;18.652;2024-02-26T02:46:35;113.40;;;68.40;;
81229;SDS011;70701;44.452;18.652;2024-02-26T02:49:01;105.63;;;63.40;;
81229;SDS011;70701;44.452;18.652;2024-02-26T02:51:27;106.77;;;61.43;;
81229;SDS011;70701;44.452;18.652;2024-02-26T02:53:52;103.30;;;62.13;;
81229;SDS011;70701;44.452;18.652;2024-02-26T02:56:18;108.33;;;62.97;;
81229;SDS011;70701;44.452;18.652;2024-02-26T02:58:44;110.83;;;64.97;;
81229;SDS011;70701;44.452;18.652;2024-02-26T03:01:10;100.80;;;61.93;;
81229;SDS011;70701;44.452;18.652;2024-02-26T03:03:35;111.23;;;65.73;;
81229;SDS011;70701;44.452;18.652;2024-02-26T03:06:02;104.00;;;63.03;;
81229;SDS011;70701;44.452;18.652;2024-02-26T03:08:28;111.40;;;66.67;;
81229;SDS011;70701;44.452;18.652;2024-02-26T03:10:54;118.20;;;67.77;;
81229;SDS011;70701;44.452;18.652;2024-02-26T03:13:20;115.43;;;68.53;;
81229;SDS011;70701;44.452;18.652;2024-02-26T03:15:47;114.20;;;67.33;;
81229;SDS011;70701;44.452;18.652;2024-02-26T03:18:12;118.10;;;71.87;;
81229;SDS011;70701;44.452;18.652;2024-02-26T03:20:38;141.60;;;81.83;;
81229;SDS011;70701;44.452;18.652;2024-02-26T03:23:04;136.07;;;75.23;;
81229;SDS011;70701;44.452;18.652;2024-02-26T03:25:29;130.87;;;75.47;;
81229;SDS011;70701;44.452;18.652;2024-02-26T03:27:55;132.40;;;74.80;;
81229;SDS011;70701;44.452;18.652;2024-02-26T03:30:20;116.00;;;69.73;;
81229;SDS011;70701;44.452;18.652;2024-02-26T03:32:46;117.57;;;71.67;;
81229;SDS011;70701;44.452;18.652;2024-02-26T03:35:12;107.87;;;65.00;;
81229;SDS011;70701;44.452;18.652;2024-02-26T03:37:38;104.67;;;62.47;;
81229;SDS011;70701;44.452;18.652;2024-02-26T03:40:04;104.40;;;62.87;;
81229;SDS011;70701;44.452;18.652;2024-02-26T03:42:30;97.77;;;59.70;;
81229;SDS011;70701;44.452;18.652;2024-02-26T03:44:56;108.53;;;63.40;;
81229;SDS011;70701;44.452;18.652;2024-02-26T03:47:21;102.47;;;60.17;;
81229;SDS011;70701;44.452;18.652;2024-02-26T03:49:47;97.80;;;58.73;;
81229;SDS011;70701;44.452;18.652;2024-02-26T03:52:12;88.53;;;56.73;;
81229;SDS011;70701;44.452;18.652;2024-02-26T03:54:38;95.80;;;57.63;;
81229;SDS011;70701;44.452;18.652;2024-02-26T03:57:04;84.57;;;54.80;;
81229;SDS011;70701;44.452;18.652;2024-02-26T03:59:29;93.77;;;56.87;;
81229;SDS011;70701;44.452;18.652;2024-02-26T04:01:55;93.03;;;56.87;;
81229;SDS011;70701;44.452;18.652;2024-02-26T04:04:20;97.33;;;58.93;;
81229;SDS011;70701;44.452;18.652;2024-02-26T04:06:46;102.43;;;57.77;;
81229;SDS011;70701;44.452;18.652;2024-02-26T04:09:14;94.47;;;58.27;;
81229;SDS011;70701;44.452;18.652;2024-02-26T04:11:40;97.43;;;57.20;;
81229;SDS011;70701;44.452;18.652;2024-02-26T04:14:08;96.00;;;59.13;;
81229;SDS011;70701;44.452;18.652;2024-02-26T04:16:34;94.93;;;56.57;;
81229;SDS011;70701;44.452;18.652;2024-02-26T04:19:03;88.03;;;55.13;;
81229;SDS011;70701;44.452;18.652;2024-02-26T04:21:28;94.70;;;55.63;;
81229;SDS011;70701;44.452;18.652;2024-02-26T04:23:54;92.40;;;58.03;;
81229;SDS011;70701;44.452;18.652;2024-02-26T04:26:26;94.87;;;56.93;;
81229;SDS011;70701;44.452;18.652;2024-02-26T04:28:51;87.60;;;54.73;;
81229;SDS011;70701;44.452;18.652;2024-02-26T04:31:18;93.93;;;57.33;;
81229;SDS011;70701;44.452;18.652;2024-02-26T04:33:44;91.70;;;58.07;;
81229;SDS011;70701;44.452;18.652;2024-02-26T04:36:13;94.47;;;58.77;;
81229;SDS011;70701;44.452;18.652;2024-02-26T04:38:43;98.15;;;59.13;;
81229;SDS011;70701;44.452;18.652;2024-02-26T04:41:09;87.63;;;55.33;;
81229;SDS011;70701;44.452;18.652;2024-02-26T04:43:34;100.57;;;56.93;;
81229;SDS011;70701;44.452;18.652;2024-02-26T04:46:07;94.83;;;56.63;;
81229;SDS011;70701;44.452;18.652;2024-02-26T04:48:33;92.90;;;56.80;;
81229;SDS011;70701;44.452;18.652;2024-02-26T04:51:00;83.77;;;52.53;;
81229;SDS011;70701;44.452;18.652;2024-02-26T04:53:26;89.23;;;54.63;;
81229;SDS011;70701;44.452;18.652;2024-02-26T04:55:51;99.80;;;58.23;;
81229;SDS011;70701;44.452;18.652;2024-02-26T04:58:17;98.00;;;58.17;;
81229;SDS011;70701;44.452;18.652;2024-02-26T05:00:43;101.33;;;61.03;;
81229;SDS011;70701;44.452;18.652;2024-02-26T05:03:09;126.70;;;70.40;;
81229;SDS011;70701;44.452;18.652;2024-02-26T05:05:38;167.40;;;88.57;;
81229;SDS011;70701;44.452;18.652;2024-02-26T05:08:05;196.73;;;113.23;;
81229;SDS011;70701;44.452;18.652;2024-02-26T05:10:32;190.77;;;107.60;;
81229;SDS011;70701;44.452;18.652;2024-02-26T05:12:59;170.20;;;94.17;;
81229;SDS011;70701;44.452;18.652;2024-02-26T05:15:25;178.97;;;96.30;;
81229;SDS011;70701;44.452;18.652;2024-02-26T05:17:50;191.80;;;102.20;;
81229;SDS011;70701;44.452;18.652;2024-02-26T05:20:17;170.73;;;99.97;;
81229;SDS011;70701;44.452;18.652;2024-02-26T05:22:44;161.33;;;93.50;;
81229;SDS011;70701;44.452;18.652;2024-02-26T05:25:10;140.03;;;79.63;;
81229;SDS011;70701;44.452;18.652;2024-02-26T05:27:35;141.87;;;77.60;;
81229;SDS011;70701;44.452;18.652;2024-02-26T05:30:01;147.10;;;80.10;;
81229;SDS011;70701;44.452;18.652;2024-02-26T05:32:26;142.27;;;83.53;;
81229;SDS011;70701;44.452;18.652;2024-02-26T05:34:52;144.43;;;83.20;;
81229;SDS011;70701;44.452;18.652;2024-02-26T05:37:18;144.93;;;80.83;;
81229;SDS011;70701;44.452;18.652;2024-02-26T05:39:43;141.33;;;80.27;;
81229;SDS011;70701;44.452;18.652;2024-02-26T05:42:09;144.80;;;78.13;;
81229;SDS011;70701;44.452;18.652;2024-02-26T05:44:35;154.63;;;72.93;;
81229;SDS011;70701;44.452;18.652;2024-02-26T05:47:00;139.37;;;71.50;;
81229;SDS011;70701;44.452;18.652;2024-02-26T05:49:26;133.97;;;73.87;;
81229;SDS011;70701;44.452;18.652;2024-02-26T05:51:51;125.67;;;69.03;;
81229;SDS011;70701;44.452;18.652;2024-02-26T05:54:17;148.40;;;74.33;;
81229;SDS011;70701;44.452;18.652;2024-02-26T05:56:42;135.60;;;77.03;;
81229;SDS011;70701;44.452;18.652;2024-02-26T05:59:08;137.87;;;77.00;;
81229;SDS011;70701;44.452;18.652;2024-02-26T06:01:34;132.73;;;73.60;;
81229;SDS011;70701;44.452;18.652;2024-02-26T06:03:59;134.00;;;80.03;;
81229;SDS011;70701;44.452;18.652;2024-02-26T06:06:25;170.83;;;99.00;;
81229;SDS011;70701;44.452;18.652;2024-02-26T06:08:51;162.80;;;97.73;;
81229;SDS011;70701;44.452;18.652;2024-02-26T06:11:17;149.37;;;84.20;;
81229;SDS011;70701;44.452;18.652;2024-02-26T06:13:43;148.80;;;84.67;;
81229;SDS011;70701;44.452;18.652;2024-02-26T06:16:08;151.57;;;85.13;;
81229;SDS011;70701;44.452;18.652;2024-02-26T06:18:34;160.40;;;87.80;;
81229;SDS011;70701;44.452;18.652;2024-02-26T06:21:00;155.83;;;81.27;;
81229;SDS011;70701;44.452;18.652;2024-02-26T06:23:25;146.07;;;83.73;;
81229;SDS011;70701;44.452;18.652;2024-02-26T06:25:51;159.93;;;86.57;;
81229;SDS011;70701;44.452;18.652;2024-02-26T06:28:17;158.50;;;86.27;;
81229;SDS011;70701;44.452;18.652;2024-02-26T06:30:43;144.90;;;79.87;;
81229;SDS011;70701;44.452;18.652;2024-02-26T06:33:08;142.90;;;80.40;;
81229;SDS011;70701;44.452;18.652;2024-02-26T06:35:34;155.80;;;86.53;;
81229;SDS011;70701;44.452;18.652;2024-02-26T06:38:00;149.07;;;87.87;;
81229;SDS011;70701;44.452;18.652;2024-02-26T06:40:25;143.53;;;81.87;;
81229;SDS011;70701;44.452;18.652;2024-02-26T06:42:51;143.20;;;82.10;;
81229;SDS011;70701;44.452;18.652;2024-02-26T06:45:18;143.67;;;80.07;;
81229;SDS011;70701;44.452;18.652;2024-02-26T06:47:44;144.07;;;83.90;;
81229;SDS011;70701;44.452;18.652;2024-02-26T06:50:13;149.43;;;84.00;;
81229;SDS011;70701;44.452;18.652;2024-02-26T06:52:39;141.33;;;80.90;;
81229;SDS011;70701;44.452;18.652;2024-02-26T06:55:04;155.73;;;86.43;;
81229;SDS011;70701;44.452;18.652;2024-02-26T06:57:33;153.47;;;82.73;;
81229;SDS011;70701;44.452;18.652;2024-02-26T06:59:59;139.27;;;82.40;;
81229;SDS011;70701;44.452;18.652;2024-02-26T07:02:24;131.23;;;77.00;;
81229;SDS011;70701;44.452;18.652;2024-02-26T07:04:53;130.73;;;74.83;;
81229;SDS011;70701;44.452;18.652;2024-02-26T07:07:21;120.53;;;72.53;;
81229;SDS011;70701;44.452;18.652;2024-02-26T07:09:48;129.70;;;71.60;;
81229;SDS011;70701;44.452;18.652;2024-02-26T07:12:14;125.40;;;71.70;;
81229;SDS011;70701;44.452;18.652;2024-02-26T07:14:41;131.80;;;74.97;;
81229;SDS011;70701;44.452;18.652;2024-02-26T07:17:07;117.07;;;69.80;;
81229;SDS011;70701;44.452;18.652;2024-02-26T07:19:33;125.77;;;71.67;;
81229;SDS011;70701;44.452;18.652;2024-02-26T07:21:59;129.93;;;78.10;;
81229;SDS011;70701;44.452;18.652;2024-02-26T07:24:27;139.70;;;81.20;;
81229;SDS011;70701;44.452;18.652;2024-02-26T07:26:53;150.37;;;88.67;;
81229;SDS011;70701;44.452;18.652;2024-02-26T07:29:20;169.03;;;90.83;;
81229;SDS011;70701;44.452;18.652;2024-02-26T07:31:47;157.03;;;94.77;;
81229;SDS011;70701;44.452;18.652;2024-02-26T07:34:12;149.30;;;85.93;;
81229;SDS011;70701;44.452;18.652;2024-02-26T07:36:38;149.67;;;87.70;;
81229;SDS011;70701;44.452;18.652;2024-02-26T07:39:04;151.93;;;91.13;;
81229;SDS011;70701;44.452;18.652;2024-02-26T07:41:30;151.70;;;87.07;;
81229;SDS011;70701;44.452;18.652;2024-02-26T07:43:56;166.03;;;96.50;;
81229;SDS011;70701;44.452;18.652;2024-02-26T07:46:22;172.97;;;105.10;;
81229;SDS011;70701;44.452;18.652;2024-02-26T07:48:47;169.30;;;100.70;;
81229;SDS011;70701;44.452;18.652;2024-02-26T07:51:13;167.87;;;98.20;;
81229;SDS011;70701;44.452;18.652;2024-02-26T07:53:39;186.07;;;107.57;;
81229;SDS011;70701;44.452;18.652;2024-02-26T07:56:06;199.37;;;116.43;;
81229;SDS011;70701;44.452;18.652;2024-02-26T07:58:32;195.70;;;117.07;;
81229;SDS011;70701;44.452;18.652;2024-02-26T08:00:58;213.73;;;122.53;;
81229;SDS011;70701;44.452;18.652;2024-02-26T08:03:24;221.47;;;128.60;;
81229;SDS011;70701;44.452;18.652;2024-02-26T08:05:50;218.03;;;123.70;;
81229;SDS011;70701;44.452;18.652;2024-02-26T08:08:16;172.37;;;95.97;;
81229;SDS011;70701;44.452;18.652;2024-02-26T08:10:42;167.33;;;99.93;;
81229;SDS011;70701;44.452;18.652;2024-02-26T08:13:08;155.20;;;93.53;;
81229;SDS011;70701;44.452;18.652;2024-02-26T08:15:34;150.57;;;87.87;;
81229;SDS011;70701;44.452;18.652;2024-02-26T08:18:02;138.13;;;84.10;;
81229;SDS011;70701;44.452;18.652;2024-02-26T08:20:29;132.83;;;81.53;;
81229;SDS011;70701;44.452;18.652;2024-02-26T08:22:55;139.03;;;77.83;;
81229;SDS011;70701;44.452;18.652;2024-02-26T08:25:21;133.23;;;72.27;;
81229;SDS011;70701;44.452;18.652;2024-02-26T08:27:48;124.60;;;76.90;;
81229;SDS011;70701;44.452;18.652;2024-02-26T08:30:14;111.80;;;69.90;;
81229;SDS011;70701;44.452;18.652;2024-02-26T08:32:45;121.13;;;71.23;;
81229;SDS011;70701;44.452;18.652;2024-02-26T08:35:11;111.30;;;68.77;;
81229;SDS011;70701;44.452;18.652;2024-02-26T08:37:38;117.93;;;75.20;;
81229;SDS011;70701;44.452;18.652;2024-02-26T08:40:04;113.27;;;69.77;;
81229;SDS011;70701;44.452;18.652;2024-02-26T08:42:30;117.93;;;76.10;;
81229;SDS011;70701;44.452;18.652;2024-02-26T08:44:56;115.47;;;70.77;;
81229;SDS011;70701;44.452;18.652;2024-02-26T08:47:25;111.33;;;70.03;;
81229;SDS011;70701;44.452;18.652;2024-02-26T08:49:51;109.57;;;64.70;;
81229;SDS011;70701;44.452;18.652;2024-02-26T08:52:16;114.70;;;70.37;;
81229;SDS011;70701;44.452;18.652;2024-02-26T08:54:42;97.13;;;63.33;;
81229;SDS011;70701;44.452;18.652;2024-02-26T08:57:08;110.37;;;67.10;;
81229;SDS011;70701;44.452;18.652;2024-02-26T08:59:33;104.90;;;65.90;;
81229;SDS011;70701;44.452;18.652;2024-02-26T09:01:59;121.57;;;74.67;;
81229;SDS011;70701;44.452;18.652;2024-02-26T09:04:25;131.83;;;86.93;;
81229;SDS011;70701;44.452;18.652;2024-02-26T09:06:52;110.67;;;73.33;;
81229;SDS011;70701;44.452;18.652;2024-02-26T09:09:18;109.37;;;76.20;;
81229;SDS011;70701;44.452;18.652;2024-02-26T09:11:43;115.93;;;77.40;;
81229;SDS011;70701;44.452;18.652;2024-02-26T09:14:09;125.20;;;81.20;;
81229;SDS011;70701;44.452;18.652;2024-02-26T09:16:35;116.00;;;79.97;;
81229;SDS011;70701;44.452;18.652;2024-02-26T09:19:01;116.67;;;81.13;;
81229;SDS011;70701;44.452;18.652;2024-02-26T09:21:28;116.80;;;81.57;;
81229;SDS011;70701;44.452;18.652;2024-02-26T09:23:53;105.50;;;69.83;;
81229;SDS011;70701;44.452;18.652;2024-02-26T09:26:19;84.20;;;60.13;;
81229;SDS011;70701;44.452;18.652;2024-02-26T09:28:45;77.13;;;51.87;;
81229;SDS011;70701;44.452;18.652;2024-02-26T09:31:11;60.47;;;40.07;;
81229;SDS011;70701;44.452;18.652;2024-02-26T09:33:36;66.17;;;43.13;;
81229;SDS011;70701;44.452;18.652;2024-02-26T09:36:03;61.53;;;37.93;;
81229;SDS011;70701;44.452;18.652;2024-02-26T09:38:29;58.97;;;40.50;;
81229;SDS011;70701;44.452;18.652;2024-02-26T09:40:58;66.27;;;41.90;;
81229;SDS011;70701;44.452;18.652;2024-02-26T09:43:24;62.77;;;39.57;;
81229;SDS011;70701;44.452;18.652;2024-02-26T09:45:54;62.40;;;41.38;;
81229;SDS011;70701;44.452;18.652;2024-02-26T09:48:20;69.32;;;45.70;;
81229;SDS011;70701;44.452;18.652;2024-02-26T09:50:50;74.43;;;48.70;;
81229;SDS011;70701;44.452;18.652;2024-02-26T09:53:16;66.28;;;43.03;;
81229;SDS011;70701;44.452;18.652;2024-02-26T09:55:44;64.38;;;43.55;;
81229;SDS011;70701;44.452;18.652;2024-02-26T09:58:10;63.58;;;41.75;;
81229;SDS011;70701;44.452;18.652;2024-02-26T10:00:37;57.15;;;39.72;;
81229;SDS011;70701;44.452;18.652;2024-02-26T10:03:04;55.90;;;38.58;;
81229;SDS011;70701;44.452;18.652;2024-02-26T10:05:31;54.38;;;35.08;;
81229;SDS011;70701;44.452;18.652;2024-02-26T10:07:59;45.88;;;28.38;;
81229;SDS011;70701;44.452;18.652;2024-02-26T10:10:27;36.25;;;26.30;;
81229;SDS011;70701;44.452;18.652;2024-02-26T10:12:54;42.95;;;27.35;;
81229;SDS011;70701;44.452;18.652;2024-02-26T10:15:20;43.28;;;27.95;;
81229;SDS011;70701;44.452;18.652;2024-02-26T10:17:46;37.97;;;24.33;;
81229;SDS011;70701;44.452;18.652;2024-02-26T10:20:12;36.28;;;24.45;;
81229;SDS011;70701;44.452;18.652;2024-02-26T10:22:46;32.50;;;23.52;;
81229;SDS011;70701;44.452;18.652;2024-02-26T10:25:12;35.38;;;24.42;;
81229;SDS011;70701;44.452;18.652;2024-02-26T10:27:41;36.08;;;25.52;;
81229;SDS011;70701;44.452;18.652;2024-02-26T10:30:17;39.67;;;27.65;;
81229;SDS011;70701;44.452;18.652;2024-02-26T10:32:45;38.90;;;26.15;;
81229;SDS011;70701;44.452;18.652;2024-02-26T10:35:12;34.63;;;23.40;;
81229;SDS011;70701;44.452;18.652;2024-02-26T10:37:39;31.98;;;23.65;;
81229;SDS011;70701;44.452;18.652;2024-02-26T10:40:06;35.10;;;24.48;;
81229;SDS011;70701;44.452;18.652;2024-02-26T10:42:34;40.88;;;25.38;;
81229;SDS011;70701;44.452;18.652;2024-02-26T10:45:00;76.38;;;36.10;;
81229;SDS011;70701;44.452;18.652;2024-02-26T10:47:28;44.60;;;27.48;;
81229;SDS011;70701;44.452;18.652;2024-02-26T10:49:55;33.95;;;23.13;;
81229;SDS011;70701;44.452;18.652;2024-02-26T10:52:22;34.47;;;27.05;;
81229;SDS011;70701;44.452;18.652;2024-02-26T10:54:50;34.97;;;23.58;;
81229;SDS011;70701;44.452;18.652;2024-02-26T10:57:22;27.27;;;19.23;;
81229;SDS011;70701;44.452;18.652;2024-02-26T10:59:50;24.95;;;17.35;;
81229;SDS011;70701;44.452;18.652;2024-02-26T11:02:17;29.35;;;21.23;;
81229;SDS011;70701;44.452;18.652;2024-02-26T11:04:43;29.85;;;19.88;;
81229;SDS011;70701;44.452;18.652;2024-02-26T11:07:10;25.98;;;19.00;;
81229;SDS011;70701;44.452;18.652;2024-02-26T11:09:37;20.85;;;13.88;;
81229;SDS011;70701;44.452;18.652;2024-02-26T11:12:09;21.25;;;13.45;;
81229;SDS011;70701;44.452;18.652;2024-02-26T11:14:38;18.30;;;11.85;;
81229;SDS011;70701;44.452;18.652;2024-02-26T11:17:05;17.30;;;9.70;;
81229;SDS011;70701;44.452;18.652;2024-02-26T11:19:34;16.00;;;10.63;;
81229;SDS011;70701;44.452;18.652;2024-02-26T11:22:01;15.82;;;9.85;;
81229;SDS011;70701;44.452;18.652;2024-02-26T11:24:27;17.40;;;11.45;;
81229;SDS011;70701;44.452;18.652;2024-02-26T11:26:57;17.02;;;10.52;;
81229;SDS011;70701;44.452;18.652;2024-02-26T11:29:32;15.75;;;9.13;;
81229;SDS011;70701;44.452;18.652;2024-02-26T11:32:03;10.20;;;7.30;;
81229;SDS011;70701;44.452;18.652;2024-02-26T11:34:29;28.10;;;19.83;;
81229;SDS011;70701;44.452;18.652;2024-02-26T11:36:55;27.80;;;17.75;;
81229;SDS011;70701;44.452;18.652;2024-02-26T11:39:21;33.60;;;20.30;;
81229;SDS011;70701;44.452;18.652;2024-02-26T11:41:47;37.55;;;24.63;;
81229;SDS011;70701;44.452;18.652;2024-02-26T11:44:13;34.58;;;21.88;;
81229;SDS011;70701;44.452;18.652;2024-02-26T11:46:39;32.25;;;20.60;;
81229;SDS011;70701;44.452;18.652;2024-02-26T11:51:51;36.35;;;23.33;;
81229;SDS011;70701;44.452;18.652;2024-02-26T11:57:04;33.58;;;22.45;;
81229;SDS011;70701;44.452;18.652;2024-02-26T11:59:44;32.38;;;22.30;;
81229;SDS011;70701;44.452;18.652;2024-02-26T12:02:10;36.63;;;23.77;;
81229;SDS011;70701;44.452;18.652;2024-02-26T12:04:38;39.90;;;25.70;;
81229;SDS011;70701;44.452;18.652;2024-02-26T12:07:03;37.33;;;25.23;;
81229;SDS011;70701;44.452;18.652;2024-02-26T12:12:04;35.00;;;24.10;;
81229;SDS011;70701;44.452;18.652;2024-02-26T12:14:37;35.92;;;24.13;;
81229;SDS011;70701;44.452;18.652;2024-02-26T12:17:19;39.88;;;25.45;;
81229;SDS011;70701;44.452;18.652;2024-02-26T12:19:46;30.45;;;19.27;;
81229;SDS011;70701;44.452;18.652;2024-02-26T12:22:12;26.50;;;17.83;;
81229;SDS011;70701;44.452;18.652;2024-02-26T12:24:39;26.98;;;18.65;;
81229;SDS011;70701;44.452;18.652;2024-02-26T12:27:05;39.15;;;24.83;;
81229;SDS011;70701;44.452;18.652;2024-02-26T12:29:31;28.35;;;15.63;;
81229;SDS011;70701;44.452;18.652;2024-02-26T12:31:57;24.08;;;14.60;;
81229;SDS011;70701;44.452;18.652;2024-02-26T12:34:23;20.05;;;12.35;;
81229;SDS011;70701;44.452;18.652;2024-02-26T12:36:49;20.33;;;11.57;;
81229;SDS011;70701;44.452;18.652;2024-02-26T12:39:15;17.80;;;12.35;;
81229;SDS011;70701;44.452;18.652;2024-02-26T12:41:42;16.77;;;9.98;;
81229;SDS011;70701;44.452;18.652;2024-02-26T12:44:16;17.80;;;11.02;;
81229;SDS011;70701;44.452;18.652;2024-02-26T12:46:41;18.58;;;10.30;;
81229;SDS011;70701;44.452;18.652;2024-02-26T12:49:07;12.63;;;7.88;;
81229;SDS011;70701;44.452;18.652;2024-02-26T12:51:33;12.98;;;8.50;;
81229;SDS011;70701;44.452;18.652;2024-02-26T12:53:59;12.90;;;7.22;;
81229;SDS011;70701;44.452;18.652;2024-02-26T12:56:26;12.82;;;7.25;;
81229;SDS011;70701;44.452;18.652;2024-02-26T12:58:53;9.80;;;5.75;;
81229;SDS011;70701;44.452;18.652;2024-02-26T13:01:22;11.65;;;7.15;;
81229;SDS011;70701;44.452;18.652;2024-02-26T13:03:49;9.32;;;6.07;;
81229;SDS011;70701;44.452;18.652;2024-02-26T13:06:17;9.25;;;5.60;;
81229;SDS011;70701;44.452;18.652;2024-02-26T13:08:43;8.32;;;4.90;;
81229;SDS011;70701;44.452;18.652;2024-02-26T13:11:10;7.18;;;4.50;;
81229;SDS011;70701;44.452;18.652;2024-02-26T13:13:36;11.98;;;8.48;;
81229;SDS011;70701;44.452;18.652;2024-02-26T13:16:02;9.48;;;5.20;;
81229;SDS011;70701;44.452;18.652;2024-02-26T13:18:29;7.85;;;4.60;;
81229;SDS011;70701;44.452;18.652;2024-02-26T13:21:07;9.88;;;5.65;;
81229;SDS011;70701;44.452;18.652;2024-02-26T13:23:39;9.95;;;4.85;;
81229;SDS011;70701;44.452;18.652;2024-02-26T13:26:05;8.77;;;5.07;;
81229;SDS011;70701;44.452;18.652;2024-02-26T13:28:31;8.02;;;5.47;;
81229;SDS011;70701;44.452;18.652;2024-02-26T13:30:58;10.23;;;4.43;;
81229;SDS011;70701;44.452;18.652;2024-02-26T13:33:28;11.23;;;4.30;;
81229;SDS011;70701;44.452;18.652;2024-02-26T13:35:55;8.00;;;3.95;;
81229;SDS011;70701;44.452;18.652;2024-02-26T13:38:22;8.45;;;4.30;;
81229;SDS011;70701;44.452;18.652;2024-02-26T13:40:49;11.05;;;5.50;;
81229;SDS011;70701;44.452;18.652;2024-02-26T13:43:15;15.27;;;6.63;;
81229;SDS011;70701;44.452;18.652;2024-02-26T13:45:40;10.93;;;6.20;;
81229;SDS011;70701;44.452;18.652;2024-02-26T13:48:07;13.07;;;6.57;;
81229;SDS011;70701;44.452;18.652;2024-02-26T13:50:35;9.20;;;4.70;;
81229;SDS011;70701;44.452;18.652;2024-02-26T13:53:04;7.90;;;4.70;;
81229;SDS011;70701;44.452;18.652;2024-02-26T13:55:43;8.80;;;4.57;;
81229;SDS011;70701;44.452;18.652;2024-02-26T13:58:08;10.10;;;4.97;;
81229;SDS011;70701;44.452;18.652;2024-02-26T14:00:37;8.25;;;4.63;;
81229;SDS011;70701;44.452;18.652;2024-02-26T14:03:03;7.55;;;4.22;;
81229;SDS011;70701;44.452;18.652;2024-02-26T14:05:29;9.25;;;5.05;;
81229;SDS011;70701;44.452;18.652;2024-02-26T14:07:55;8.50;;;5.10;;